sensor_id;sensor_type;location;lat;lon;timestamp;pressure;altitude;pressure_sealevel;temperature;humidity
21664;BME280;10993;52.510;13.456;2023-07-30T00:02:50;59520.16;;;-146.93;100.00
21664;BME280;10993;52.510;13.456;2023-07-30T00:07:50;59293.19;;;-146.93;100.00
21664;BME280;10993;52.510;13.456;2023-07-30T00:12:50;59303.34;;;-146.93;100.00
21664;BME280;10993;52.510;13.456;2023-07-30T00:17:52;59256.72;;;-146.93;100.00
21664;BME280;10993;52.510;13.456;2023-07-30T00:22:52;59587.03;;;-146.93;100.00
21664;BME280;10993;52.510;13.456;2023-07-30T00:27:53;59505.97;;;-146.93;100.00
21664;BME280;10993;52.510;13.456;2023-07-30T00:32:54;59133.13;;;-146.93;100.00
21664;BME280;10993;52.510;13.456;2023-07-30T00:37:55;59305.34;;;-146.93;100.00
21664;BME280;10993;52.510;13.456;2023-07-30T00:42:55;59368.19;;;-146.93;100.00
21664;BME280;10993;52.510;13.456;2023-07-30T00:47:57;59218.22;;;-146.93;100.00
21664;BME280;10993;52.510;13.456;2023-07-30T00:52:57;58977.09;;;-146.93;100.00
21664;BME280;10993;52.510;13.456;2023-07-30T00:57:57;58837.31;;;-146.93;100.00
21664;BME280;10993;52.510;13.456;2023-07-30T01:03:00;58764.38;;;-146.93;100.00
21664;BME280;10993;52.510;13.456;2023-07-30T01:08:00;58780.59;;;-146.93;100.00
21664;BME280;10993;52.510;13.456;2023-07-30T01:13:03;58776.53;;;-146.93;100.00
21664;BME280;10993;52.510;13.456;2023-07-30T01:18:04;58569.88;;;-146.93;100.00
21664;BME280;10993;52.510;13.456;2023-07-30T01:23:06;58857.56;;;-146.93;100.00
21664;BME280;10993;52.510;13.456;2023-07-30T01:28:08;58525.31;;;-146.93;100.00
21664;BME280;10993;52.510;13.456;2023-07-30T01:33:11;58474.66;;;-146.93;100.00
21664;BME280;10993;52.510;13.456;2023-07-30T01:38:14;58547.59;;;-146.93;100.00
21664;BME280;10993;52.510;13.456;2023-07-30T01:43:14;58274.13;;;-146.93;100.00
21664;BME280;10993;52.510;13.456;2023-07-30T01:48:15;58018.88;;;-146.93;100.00
21664;BME280;10993;52.510;13.456;2023-07-30T01:53:16;58022.94;;;-146.93;100.00
21664;BME280;10993;52.510;13.456;2023-07-30T01:58:17;57873.03;;;-146.93;100.00
21664;BME280;10993;52.510;13.456;2023-07-30T02:03:17;58136.38;;;-146.93;100.00
21664;BME280;10993;52.510;13.456;2023-07-30T02:08:19;58294.38;;;-146.93;100.00
21664;BME280;10993;52.510;13.456;2023-07-30T02:13:19;58357.16;;;-146.93;100.00
21664;BME280;10993;52.510;13.456;2023-07-30T02:18:19;58456.44;;;-146.93;100.00
21664;BME280;10993;52.510;13.456;2023-07-30T02:23:21;58464.53;;;-146.93;100.00
21664;BME280;10993;52.510;13.456;2023-07-30T02:28:21;58482.78;;;-146.93;100.00
21664;BME280;10993;52.510;13.456;2023-07-30T02:33:22;58819.06;;;-146.93;100.00
21664;BME280;10993;52.510;13.456;2023-07-30T02:38:24;58776.53;;;-146.93;100.00
21664;BME280;10993;52.510;13.456;2023-07-30T02:43:24;59325.63;;;-146.93;100.00
21664;BME280;10993;52.510;13.456;2023-07-30T02:48:24;59420.88;;;-146.93;100.00
21664;BME280;10993;52.510;13.456;2023-07-30T02:53:26;58924.44;;;-146.93;100.00
21664;BME280;10993;52.510;13.456;2023-07-30T02:58:26;58892.00;;;-146.93;100.00
21664;BME280;10993;52.510;13.456;2023-07-30T03:03:26;59183.78;;;-146.93;100.00
21664;BME280;10993;52.510;13.456;2023-07-30T03:08:28;59850.50;;;-146.93;100.00
21664;BME280;10993;52.510;13.456;2023-07-30T03:13:28;59963.97;;;-146.93;100.00
21664;BME280;10993;52.510;13.456;2023-07-30T03:18:29;60308.53;;;-146.93;100.00
21664;BME280;10993;52.510;13.456;2023-07-30T03:23:30;60199.09;;;-146.93;100.00
21664;BME280;10993;52.510;13.456;2023-07-30T03:28:31;60778.81;;;-146.93;100.00
21664;BME280;10993;52.510;13.456;2023-07-30T03:33:32;59905.22;;;-146.93;100.00
21664;BME280;10993;52.510;13.456;2023-07-30T03:38:35;60693.69;;;-146.93;100.00
21664;BME280;10993;52.510;13.456;2023-07-30T03:43:35;59510.03;;;-146.93;100.00
21664;BME280;10993;52.510;13.456;2023-07-30T03:48:36;59349.94;;;-146.93;100.00
21664;BME280;10993;52.510;13.456;2023-07-30T03:53:37;59554.59;;;-146.93;100.00
21664;BME280;10993;52.510;13.456;2023-07-30T03:58:38;59465.44;;;-146.93;100.00
21664;BME280;10993;52.510;13.456;2023-07-30T04:03:38;59724.84;;;-146.93;100.00
21664;BME280;10993;52.510;13.456;2023-07-30T04:08:40;58022.94;;;-146.93;100.00
21664;BME280;10993;52.510;13.456;2023-07-30T04:13:41;59927.50;;;-146.93;100.00
21664;BME280;10993;52.510;13.456;2023-07-30T04:18:42;57836.59;;;-146.93;100.00
21664;BME280;10993;52.510;13.456;2023-07-30T04:23:43;57551.00;;;-146.93;94.19
21664;BME280;10993;52.510;13.456;2023-07-30T04:28:44;57553.03;;;-146.93;89.72
21664;BME280;10993;52.510;13.456;2023-07-30T04:33:44;57850.75;;;-146.93;82.46
21664;BME280;10993;52.510;13.456;2023-07-30T04:38:45;57834.56;;;-146.93;81.61
21664;BME280;10993;52.510;13.456;2023-07-30T04:43:46;57948.00;;;-146.93;76.56
21664;BME280;10993;52.510;13.456;2023-07-30T04:48:46;57901.41;;;-146.93;77.41
21664;BME280;10993;52.510;13.456;2023-07-30T04:53:48;58736.00;;;-146.93;66.96
21664;BME280;10993;52.510;13.456;2023-07-30T04:58:48;59293.19;;;-146.93;54.30
21664;BME280;10993;52.510;13.456;2023-07-30T05:03:49;60420.03;;;-146.93;42.97
21664;BME280;10993;52.510;13.456;2023-07-30T05:08:50;61289.72;;;-146.93;36.59
21664;BME280;10993;52.510;13.456;2023-07-30T05:13:51;61958.88;;;-146.93;34.76
21664;BME280;10993;52.510;13.456;2023-07-30T05:18:51;62165.72;;;-146.93;33.11
21664;BME280;10993;52.510;13.456;2023-07-30T05:23:53;62230.63;;;-146.93;33.07
21664;BME280;10993;52.510;13.456;2023-07-30T05:28:53;62407.06;;;-146.93;32.73
21664;BME280;10993;52.510;13.456;2023-07-30T05:33:53;61733.78;;;-146.93;33.35
21664;BME280;10993;52.510;13.456;2023-07-30T05:38:55;62540.94;;;-146.93;31.87
21664;BME280;10993;52.510;13.456;2023-07-30T05:43:55;62956.75;;;-146.93;30.88
21664;BME280;10993;52.510;13.456;2023-07-30T05:48:56;63445.66;;;-146.93;30.40
21664;BME280;10993;52.510;13.456;2023-07-30T05:53:58;61731.75;;;-146.93;32.82
21664;BME280;10993;52.510;13.456;2023-07-30T05:58:58;60547.72;;;-146.93;34.54
21664;BME280;10993;52.510;13.456;2023-07-30T06:03:58;61439.75;;;-146.93;34.12
21664;BME280;10993;52.510;13.456;2023-07-30T06:09:00;62056.19;;;-146.93;31.62
21664;BME280;10993;52.510;13.456;2023-07-30T06:14:00;62828.94;;;-146.93;31.12
21664;BME280;10993;52.510;13.456;2023-07-30T06:19:01;62997.31;;;-146.93;30.88
21664;BME280;10993;52.510;13.456;2023-07-30T06:24:03;62920.22;;;-146.93;29.88
21664;BME280;10993;52.510;13.456;2023-07-30T06:29:03;61166.03;;;-146.93;33.55
21664;BME280;10993;52.510;13.456;2023-07-30T06:34:03;60389.63;;;-146.93;36.29
21664;BME280;10993;52.510;13.456;2023-07-30T06:39:06;59485.72;;;-146.93;39.69
21664;BME280;10993;52.510;13.456;2023-07-30T06:44:06;60158.56;;;-146.93;39.04
21664;BME280;10993;52.510;13.456;2023-07-30T06:49:06;60693.69;;;-146.93;36.64
21664;BME280;10993;52.510;13.456;2023-07-30T06:54:08;60178.81;;;-146.93;37.23
21664;BME280;10993;52.510;13.456;2023-07-30T06:59:08;59564.75;;;-146.93;40.30
21664;BME280;10993;52.510;13.456;2023-07-30T07:04:09;59317.50;;;-146.93;43.49
21664;BME280;10993;52.510;13.456;2023-07-30T07:09:10;59939.66;;;-146.93;40.41
21664;BME280;10993;52.510;13.456;2023-07-30T07:14:11;62167.75;;;-146.93;32.64
21664;BME280;10993;52.510;13.456;2023-07-30T07:19:11;62553.09;;;-146.93;32.18
21664;BME280;10993;52.510;13.456;2023-07-30T07:24:13;60458.53;;;-146.93;35.33
21664;BME280;10993;52.510;13.456;2023-07-30T07:29:13;62575.41;;;-146.93;32.36
21664;BME280;10993;52.510;13.456;2023-07-30T07:34:14;64722.00;;;-146.93;28.51
21664;BME280;10993;52.510;13.456;2023-07-30T07:39:15;65223.34;;;-146.93;27.48
21664;BME280;10993;52.510;13.456;2023-07-30T07:44:16;67593.00;;;-146.93;26.39
21664;BME280;10993;52.510;13.456;2023-07-30T07:49:16;64983.81;;;-146.93;27.72
21664;BME280;10993;52.510;13.456;2023-07-30T07:54:18;64052.31;;;-146.93;29.70
21664;BME280;10993;52.510;13.456;2023-07-30T07:59:18;63534.91;;;-146.93;29.83
21664;BME280;10993;52.510;13.456;2023-07-30T08:04:21;63934.63;;;-146.93;29.67
21664;BME280;10993;52.510;13.456;2023-07-30T08:09:22;65489.25;;;-146.93;27.22
21664;BME280;10993;52.510;13.456;2023-07-30T08:14:23;65363.41;;;-146.93;28.14
21664;BME280;10993;52.510;13.456;2023-07-30T08:19:23;64521.06;;;-146.93;29.43
21664;BME280;10993;52.510;13.456;2023-07-30T08:24:25;61435.69;;;-146.93;33.57
21664;BME280;10993;52.510;13.456;2023-07-30T08:29:26;62019.69;;;-146.93;31.76
21664;BME280;10993;52.510;13.456;2023-07-30T08:34:26;63465.94;;;-146.93;29.60
21664;BME280;10993;52.510;13.456;2023-07-30T08:39:28;64198.41;;;-146.93;28.76
21664;BME280;10993;52.510;13.456;2023-07-30T08:44:28;65745.06;;;-146.93;27.48
21664;BME280;10993;52.510;13.456;2023-07-30T08:49:30;63607.97;;;-146.93;28.75
21664;BME280;10993;52.510;13.456;2023-07-30T08:54:36;62447.63;;;-146.93;29.79
21664;BME280;10993;52.510;13.456;2023-07-30T08:59:39;62048.09;;;-146.93;30.22
21664;BME280;10993;52.510;13.456;2023-07-30T09:04:45;62222.50;;;-146.93;29.72
21664;BME280;10993;52.510;13.456;2023-07-30T09:09:49;65373.56;;;-146.93;26.71
21664;BME280;10993;52.510;13.456;2023-07-30T09:14:51;65830.31;;;-146.93;25.58
21664;BME280;10993;52.510;13.456;2023-07-30T09:19:51;67893.66;;;-146.93;23.89
21664;BME280;10993;52.510;13.456;2023-07-30T09:24:54;66549.09;;;-146.93;25.31
21664;BME280;10993;52.510;13.456;2023-07-30T09:29:56;68100.84;;;-146.93;23.83
21664;BME280;10993;52.510;13.456;2023-07-30T09:35:03;66630.31;;;-146.93;24.88
21664;BME280;10993;52.510;13.456;2023-07-30T09:40:09;63082.50;;;-146.93;27.35
21664;BME280;10993;52.510;13.456;2023-07-30T09:45:16;63938.69;;;-146.93;26.25
21664;BME280;10993;52.510;13.456;2023-07-30T09:50:17;64916.84;;;-146.93;25.45
21664;BME280;10993;52.510;13.456;2023-07-30T09:55:19;66163.28;;;-146.93;23.70
21664;BME280;10993;52.510;13.456;2023-07-30T10:00:19;66711.53;;;-146.93;24.44
21664;BME280;10993;52.510;13.456;2023-07-30T10:05:24;67365.50;;;-146.93;23.90
21664;BME280;10993;52.510;13.456;2023-07-30T10:10:28;65334.97;;;-146.93;23.87
21664;BME280;10993;52.510;13.456;2023-07-30T10:15:29;63725.63;;;-146.93;24.81
21664;BME280;10993;52.510;13.456;2023-07-30T10:20:31;64127.38;;;-146.93;25.41
21664;BME280;10993;52.510;13.456;2023-07-30T10:25:44;65844.53;;;-146.93;23.92
21664;BME280;10993;52.510;13.456;2023-07-30T10:30:55;66230.28;;;-146.93;23.41
21664;BME280;10993;52.510;13.456;2023-07-30T10:35:56;64322.19;;;-146.93;25.07
21664;BME280;10993;52.510;13.456;2023-07-30T10:41:02;63958.97;;;-146.93;24.47
21664;BME280;10993;52.510;13.456;2023-07-30T10:46:04;64496.72;;;-146.93;24.18
21664;BME280;10993;52.510;13.456;2023-07-30T10:51:05;63756.06;;;-146.93;24.88
21664;BME280;10993;52.510;13.456;2023-07-30T10:56:09;63739.84;;;-146.93;24.73
21664;BME280;10993;52.510;13.456;2023-07-30T11:01:09;62924.28;;;-146.93;25.80
21664;BME280;10993;52.510;13.456;2023-07-30T11:06:10;61293.78;;;-146.93;27.67
21664;BME280;10993;52.510;13.456;2023-07-30T11:11:11;61916.28;;;-146.93;27.59
21664;BME280;10993;52.510;13.456;2023-07-30T11:16:13;63518.69;;;-146.93;25.86
21664;BME280;10993;52.510;13.456;2023-07-30T11:21:15;64013.75;;;-146.93;25.17
21664;BME280;10993;52.510;13.456;2023-07-30T11:26:20;61898.03;;;-146.93;27.22
21664;BME280;10993;52.510;13.456;2023-07-30T11:31:20;61818.94;;;-146.93;27.24
21664;BME280;10993;52.510;13.456;2023-07-30T11:36:24;62668.72;;;-146.93;26.01
21664;BME280;10993;52.510;13.456;2023-07-30T11:41:27;62853.28;;;-146.93;25.21
21664;BME280;10993;52.510;13.456;2023-07-30T11:46:28;62987.16;;;-146.93;23.99
21664;BME280;10993;52.510;13.456;2023-07-30T11:51:29;62654.50;;;-146.93;24.35
21664;BME280;10993;52.510;13.456;2023-07-30T11:56:32;62814.75;;;-146.93;24.77
21664;BME280;10993;52.510;13.456;2023-07-30T12:01:36;63080.47;;;-146.93;24.20
21664;BME280;10993;52.510;13.456;2023-07-30T12:06:40;62465.88;;;-146.93;25.02
21664;BME280;10993;52.510;13.456;2023-07-30T12:11:46;62056.19;;;-146.93;25.65
21664;BME280;10993;52.510;13.456;2023-07-30T12:16:47;61334.31;;;-146.93;26.84
21664;BME280;10993;52.510;13.456;2023-07-30T12:21:47;60446.38;;;-146.93;27.90
21664;BME280;10993;52.510;13.456;2023-07-30T12:26:49;60442.31;;;-146.93;28.34
21664;BME280;10993;52.510;13.456;2023-07-30T12:31:49;60316.66;;;-146.93;28.07
21664;BME280;10993;52.510;13.456;2023-07-30T12:36:53;60438.25;;;-146.93;28.29
21664;BME280;10993;52.510;13.456;2023-07-30T12:41:55;60535.56;;;-146.93;28.56
21664;BME280;10993;52.510;13.456;2023-07-30T12:46:55;60180.84;;;-146.93;28.99
21664;BME280;10993;52.510;13.456;2023-07-30T12:51:55;60257.88;;;-146.93;29.17
21664;BME280;10993;52.510;13.456;2023-07-30T12:56:57;60237.59;;;-146.93;30.04
21664;BME280;10993;52.510;13.456;2023-07-30T13:01:58;60142.34;;;-146.93;29.60
21664;BME280;10993;52.510;13.456;2023-07-30T13:06:58;59943.72;;;-146.93;29.80
21664;BME280;10993;52.510;13.456;2023-07-30T13:12:00;61070.75;;;-146.93;29.13
21664;BME280;10993;52.510;13.456;2023-07-30T13:17:00;60270.03;;;-146.93;29.61
21664;BME280;10993;52.510;13.456;2023-07-30T13:22:00;60229.50;;;-146.93;28.52
21664;BME280;10993;52.510;13.456;2023-07-30T13:27:03;60093.69;;;-146.93;29.04
21664;BME280;10993;52.510;13.456;2023-07-30T13:32:04;60245.72;;;-146.93;27.72
21664;BME280;10993;52.510;13.456;2023-07-30T13:37:04;60128.16;;;-146.93;28.08
21664;BME280;10993;52.510;13.456;2023-07-30T13:42:06;60164.63;;;-146.93;28.32
21664;BME280;10993;52.510;13.456;2023-07-30T13:47:07;60089.63;;;-146.93;28.38
21664;BME280;10993;52.510;13.456;2023-07-30T13:52:07;60041.00;;;-146.93;28.45
21664;BME280;10993;52.510;13.456;2023-07-30T13:57:09;60118.00;;;-146.93;27.65
21664;BME280;10993;52.510;13.456;2023-07-30T14:02:09;59834.28;;;-146.93;28.33
21664;BME280;10993;52.510;13.456;2023-07-30T14:07:10;59587.03;;;-146.93;28.34
21664;BME280;10993;52.510;13.456;2023-07-30T14:12:11;59321.56;;;-146.93;28.92
21664;BME280;10993;52.510;13.456;2023-07-30T14:17:11;59108.81;;;-146.93;29.09
21664;BME280;10993;52.510;13.456;2023-07-30T14:22:12;59070.31;;;-146.93;29.64
21664;BME280;10993;52.510;13.456;2023-07-30T14:27:13;59064.22;;;-146.93;30.40
21664;BME280;10993;52.510;13.456;2023-07-30T14:32:15;58796.78;;;-146.93;35.49
21664;BME280;10993;52.510;13.456;2023-07-30T14:37:15;58557.72;;;-146.93;35.53
21664;BME280;10993;52.510;13.456;2023-07-30T14:42:17;58419.97;;;-146.93;36.33
21664;BME280;10993;52.510;13.456;2023-07-30T14:47:17;58108.00;;;-146.93;41.12
21664;BME280;10993;52.510;13.456;2023-07-30T14:52:17;57899.38;;;-146.93;42.79
21664;BME280;10993;52.510;13.456;2023-07-30T14:57:19;57753.53;;;-146.93;44.63
21664;BME280;10993;52.510;13.456;2023-07-30T15:02:20;57986.47;;;-146.93;44.34
21664;BME280;10993;52.510;13.456;2023-07-30T15:07:20;57698.84;;;-146.93;55.40
21664;BME280;10993;52.510;13.456;2023-07-30T15:12:26;57557.09;;;-146.93;62.99
21664;BME280;10993;52.510;13.456;2023-07-30T15:17:26;57512.53;;;-146.93;72.73
21664;BME280;10993;52.510;13.456;2023-07-30T15:22:27;57437.59;;;-146.93;76.68
21664;BME280;10993;52.510;13.456;2023-07-30T15:27:28;57423.41;;;-146.93;77.00
21664;BME280;10993;52.510;13.456;2023-07-30T15:32:29;57346.47;;;-146.93;74.17
21664;BME280;10993;52.510;13.456;2023-07-30T15:37:31;57546.97;;;-146.93;72.76
21664;BME280;10993;52.510;13.456;2023-07-30T15:42:33;57692.78;;;-146.93;69.91
21664;BME280;10993;52.510;13.456;2023-07-30T15:47:34;57638.09;;;-146.93;67.77
21664;BME280;10993;52.510;13.456;2023-07-30T15:52:34;57601.66;;;-146.93;68.46
21664;BME280;10993;52.510;13.456;2023-07-30T15:57:36;57652.28;;;-146.93;72.71
21664;BME280;10993;52.510;13.456;2023-07-30T16:02:36;57630.00;;;-146.93;71.49
21664;BME280;10993;52.510;13.456;2023-07-30T16:07:37;57668.47;;;-146.93;71.90
21664;BME280;10993;52.510;13.456;2023-07-30T16:12:38;57690.75;;;-146.93;66.13
21664;BME280;10993;52.510;13.456;2023-07-30T16:17:39;57709.00;;;-146.93;65.11
21664;BME280;10993;52.510;13.456;2023-07-30T16:22:39;57739.38;;;-146.93;62.60
21664;BME280;10993;52.510;13.456;2023-07-30T16:27:41;57790.00;;;-146.93;60.99
21664;BME280;10993;52.510;13.456;2023-07-30T16:32:42;57858.88;;;-146.93;62.25
21664;BME280;10993;52.510;13.456;2023-07-30T16:37:43;57771.78;;;-146.93;60.15
21664;BME280;10993;52.510;13.456;2023-07-30T16:42:45;57775.81;;;-146.93;58.15
21664;BME280;10993;52.510;13.456;2023-07-30T16:47:46;57903.44;;;-146.93;57.59
21664;BME280;10993;52.510;13.456;2023-07-30T16:52:46;57915.59;;;-146.93;57.34
21664;BME280;10993;52.510;13.456;2023-07-30T16:57:48;57897.34;;;-146.93;57.40
21664;BME280;10993;52.510;13.456;2023-07-30T17:02:48;57895.31;;;-146.93;57.26
21664;BME280;10993;52.510;13.456;2023-07-30T17:07:49;57765.69;;;-146.93;59.61
21664;BME280;10993;52.510;13.456;2023-07-30T17:12:51;57745.44;;;-146.93;60.51
21664;BME280;10993;52.510;13.456;2023-07-30T17:17:51;57638.09;;;-146.93;62.77
21664;BME280;10993;52.510;13.456;2023-07-30T17:22:52;57638.09;;;-146.93;61.74
21664;BME280;10993;52.510;13.456;2023-07-30T17:27:53;57621.91;;;-146.93;62.30
21664;BME280;10993;52.510;13.456;2023-07-30T17:32:55;57585.44;;;-146.93;63.94
21664;BME280;10993;52.510;13.456;2023-07-30T17:37:55;57593.53;;;-146.93;63.38
21664;BME280;10993;52.510;13.456;2023-07-30T17:42:57;57546.97;;;-146.93;64.33
21664;BME280;10993;52.510;13.456;2023-07-30T17:47:57;57380.88;;;-146.93;65.56
21664;BME280;10993;52.510;13.456;2023-07-30T17:52:58;57536.84;;;-146.93;65.35
21664;BME280;10993;52.510;13.456;2023-07-30T17:58:00;57516.59;;;-146.93;66.78
21664;BME280;10993;52.510;13.456;2023-07-30T18:03:00;57510.50;;;-146.93;67.01
21664;BME280;10993;52.510;13.456;2023-07-30T18:08:00;57358.63;;;-146.93;67.44
21664;BME280;10993;52.510;13.456;2023-07-30T18:13:02;57476.06;;;-146.93;68.30
21664;BME280;10993;52.510;13.456;2023-07-30T18:18:03;57459.88;;;-146.93;68.69
21664;BME280;10993;52.510;13.456;2023-07-30T18:23:04;57421.41;;;-146.93;68.73
21664;BME280;10993;52.510;13.456;2023-07-30T18:28:06;57382.91;;;-146.93;71.18
21664;BME280;10993;52.510;13.456;2023-07-30T18:33:06;57393.03;;;-146.93;70.34
21664;BME280;10993;52.510;13.456;2023-07-30T19:31:47;57269.50;;;-146.93;70.89
21664;BME280;10993;52.510;13.456;2023-07-30T19:54:57;57079.16;;;-146.93;83.99
21664;BME280;10993;52.510;13.456;2023-07-30T20:00:00;58089.78;;;-146.93;83.87
21664;BME280;10993;52.510;13.456;2023-07-30T20:05:23;57073.06;;;-146.93;84.62
21664;BME280;10993;52.510;13.456;2023-07-30T20:10:26;56888.81;;;-146.93;85.51
21664;BME280;10993;52.510;13.456;2023-07-30T20:15:32;57026.50;;;-146.93;85.66
21664;BME280;10993;52.510;13.456;2023-07-30T20:20:34;56969.81;;;-146.93;86.73
21664;BME280;10993;52.510;13.456;2023-07-30T20:25:37;56973.84;;;-146.93;86.43
21664;BME280;10993;52.510;13.456;2023-07-30T20:30:39;56981.94;;;-146.93;86.60
21664;BME280;10993;52.510;13.456;2023-07-30T20:35:41;56994.09;;;-146.93;86.86
21664;BME280;10993;52.510;13.456;2023-07-30T20:40:44;56927.28;;;-146.93;87.76
21664;BME280;10993;52.510;13.456;2023-07-30T20:45:46;56983.97;;;-146.93;88.02
21664;BME280;10993;52.510;13.456;2023-07-30T20:50:57;56988.03;;;-146.93;87.41
21664;BME280;10993;52.510;13.456;2023-07-30T20:56:01;56937.41;;;-146.93;87.91
21664;BME280;10993;52.510;13.456;2023-07-30T21:01:03;56957.66;;;-146.93;89.09
21664;BME280;10993;52.510;13.456;2023-07-30T21:06:05;56923.22;;;-146.93;89.96
21664;BME280;10993;52.510;13.456;2023-07-30T21:11:07;56951.59;;;-146.93;90.36
21664;BME280;10993;52.510;13.456;2023-07-30T21:16:09;56945.50;;;-146.93;90.09
21664;BME280;10993;52.510;13.456;2023-07-30T21:21:10;56921.22;;;-146.93;90.19
21664;BME280;10993;52.510;13.456;2023-07-30T21:26:12;56925.25;;;-146.93;90.53
21664;BME280;10993;52.510;13.456;2023-07-30T21:31:13;56919.19;;;-146.93;90.19
21664;BME280;10993;52.510;13.456;2023-07-30T21:36:14;56955.63;;;-146.93;89.58
21664;BME280;10993;52.510;13.456;2023-07-30T21:41:17;56979.94;;;-146.93;88.77
21664;BME280;10993;52.510;13.456;2023-07-30T21:46:17;57032.56;;;-146.93;89.36
21664;BME280;10993;52.510;13.456;2023-07-30T21:51:22;56988.03;;;-146.93;90.29
21664;BME280;10993;52.510;13.456;2023-07-30T21:56:24;56992.06;;;-146.93;88.84
21664;BME280;10993;52.510;13.456;2023-07-30T22:01:25;56917.16;;;-146.93;89.09
21664;BME280;10993;52.510;13.456;2023-07-30T22:06:26;56957.66;;;-146.93;87.04
21664;BME280;10993;52.510;13.456;2023-07-30T22:17:05;56943.47;;;-146.93;86.08
21664;BME280;10993;52.510;13.456;2023-07-30T22:22:05;56929.31;;;-146.93;86.71
21664;BME280;10993;52.510;13.456;2023-07-30T22:27:06;57581.38;;;-146.93;90.00
21664;BME280;10993;52.510;13.456;2023-07-30T22:32:08;56864.50;;;-146.93;90.72
21664;BME280;10993;52.510;13.456;2023-07-30T22:37:08;56856.41;;;-146.93;91.55
21664;BME280;10993;52.510;13.456;2023-07-30T22:42:08;56844.25;;;-146.93;91.30
21664;BME280;10993;52.510;13.456;2023-07-30T22:47:10;56872.59;;;-146.93;91.20
21664;BME280;10993;52.510;13.456;2023-07-30T22:52:10;56826.03;;;-146.93;91.39
21664;BME280;10993;52.510;13.456;2023-07-30T22:57:11;56953.59;;;-146.93;92.18
21664;BME280;10993;52.510;13.456;2023-07-30T23:02:13;56929.31;;;-146.93;92.24
21664;BME280;10993;52.510;13.456;2023-07-30T23:07:13;56927.28;;;-146.93;93.05
21664;BME280;10993;52.510;13.456;2023-07-30T23:12:13;56868.56;;;-146.93;94.68
21664;BME280;10993;52.510;13.456;2023-07-30T23:17:15;56949.56;;;-146.93;95.62
21664;BME280;10993;52.510;13.456;2023-07-30T23:22:15;56937.41;;;-146.93;95.47
21664;BME280;10993;52.510;13.456;2023-07-30T23:27:15;56963.72;;;-146.93;96.02
21664;BME280;10993;52.510;13.456;2023-07-30T23:32:17;57241.16;;;-146.93;97.19
21664;BME280;10993;52.510;13.456;2023-07-30T23:37:17;56941.44;;;-146.93;97.20
21664;BME280;10993;52.510;13.456;2023-07-30T23:42:18;56953.59;;;-146.93;97.30
21664;BME280;10993;52.510;13.456;2023-07-30T23:47:19;56957.66;;;-146.93;96.81
21664;BME280;10993;52.510;13.456;2023-07-30T23:52:20;56941.44;;;-146.93;95.78
21664;BME280;10993;52.510;13.456;2023-07-30T23:57:20;57212.81;;;-146.93;97.11
